Time;durP1;ratioP1;P1;durP2;ratioP2;P2;SDS_P1;SDS_P2;PMS_P1;PMS_P2;Temp;Humidity;BMP_temperature;BMP_pressure;BME280_temperature;BME280_humidity;BME280_pressure;Samples;Min_cycle;Max_cycle;Signal;HPM_P1;HPM_P2
2022/01/25 00:15:03;;;;;;;19.87;10.63;;;4.90;1.00;;;;;;5050806;28;20214;-69
2022/01/25 00:24:43;;;;;;;20.27;10.57;;;4.90;1.00;;;;;;5049057;28;20210;-69
2022/01/25 00:27:25;;;;;;;20.90;11.73;;;4.80;1.00;;;;;;5051630;28;20463;-69
2022/01/25 00:30:10;;;;;;;20.10;10.60;;;4.90;1.00;;;;;;5050152;28;20203;-69
2022/01/25 00:32:37;;;;;;;20.27;11.03;;;4.90;1.00;;;;;;5051179;28;20259;-69
2022/01/25 00:35:05;;;;;;;19.37;11.47;;;4.90;1.00;;;;;;5049032;28;20269;-69
2022/01/25 00:37:33;;;;;;;18.47;10.23;;;4.90;1.00;;;;;;5049476;28;20187;-69
2022/01/25 00:40:00;;;;;;;18.90;10.63;;;4.90;1.00;;;;;;5050138;28;20711;-69
2022/01/25 00:42:27;;;;;;;19.17;11.00;;;4.90;1.00;;;;;;5051023;28;20261;-69
2022/01/25 00:44:55;;;;;;;19.53;11.27;;;4.90;1.00;;;;;;5047791;28;20245;-69
2022/01/25 00:47:24;;;;;;;19.73;11.40;;;4.90;1.00;;;;;;5049905;28;20211;-69
2022/01/25 00:49:53;;;;;;;20.03;10.77;;;4.80;1.00;;;;;;5049898;28;20297;-69
2022/01/25 00:53:52;;;;;;;19.43;11.77;;;4.80;1.00;;;;;;5049253;28;20566;-69
2022/01/25 00:55:12;;;;;;;22.73;12.23;;;4.90;1.00;;;;;;5050206;28;20223;-69
2022/01/25 00:57:39;;;;;;;19.60;10.97;;;4.80;1.00;;;;;;5050509;28;20203;-69
2022/01/25 01:00:09;;;;;;;18.73;10.83;;;4.80;1.00;;;;;;5049177;28;20211;-69
2022/01/25 01:02:36;;;;;;;20.43;11.43;;;4.80;1.00;;;;;;5049515;28;20650;-69
2022/01/25 01:05:04;;;;;;;19.13;10.73;;;4.80;1.00;;;;;;5050290;28;20207;-69
2022/01/25 01:07:31;;;;;;;20.43;11.93;;;4.90;1.00;;;;;;5048982;28;20195;-69
2022/01/25 01:09:59;;;;;;;19.43;11.30;;;4.90;1.00;;;;;;5049121;28;20257;-69
2022/01/25 01:12:56;;;;;;;21.37;12.47;;;4.90;1.00;;;;;;5050914;28;20199;-69
2022/01/25 01:15:27;;;;;;;19.57;11.53;;;4.80;1.00;;;;;;5048866;28;20219;-69
2022/01/25 01:32:09;;;;;;;20.13;11.37;;;4.80;29.70;;;;;;5016213;28;20203;-74
2022/01/25 01:35:09;;;;;;;19.90;11.53;;;4.80;53.30;;;;;;5048550;28;20275;-74
2022/01/25 01:44:39;;;;;;;20.37;10.53;;;4.80;81.40;;;;;;5050286;28;20317;-74
2022/01/25 01:47:10;;;;;;;23.00;11.57;;;4.80;99.90;;;;;;5050477;28;20369;-74
2022/01/25 01:49:42;;;;;;;20.83;11.23;;;4.80;99.90;;;;;;5051243;28;20211;-74
2022/01/25 01:52:09;;;;;;;21.80;12.00;;;4.80;99.90;;;;;;5050595;28;20657;-74
2022/01/25 01:54:37;;;;;;;22.40;10.80;;;4.80;89.10;;;;;;5043457;28;20203;-74
2022/01/25 01:57:05;;;;;;;20.73;11.17;;;4.80;65.50;;;;;;5044519;28;20202;-73
2022/01/25 01:59:33;;;;;;;22.53;12.63;;;4.70;50.10;;;;;;5049855;28;20199;-74
2022/01/25 02:02:01;;;;;;;21.77;12.37;;;4.70;78.30;;;;;;5048231;28;20211;-74
2022/01/25 02:04:28;;;;;;;20.70;11.20;;;4.70;56.30;;;;;;5048515;28;20539;-74
2022/01/25 02:06:55;;;;;;;21.40;11.70;;;4.80;40.30;;;;;;5049752;28;20264;-74
2022/01/25 02:09:22;;;;;;;21.67;12.17;;;4.80;23.70;;;;;;5049240;28;20617;-74
2022/01/25 02:11:49;;;;;;;18.87;11.00;;;4.80;10.70;;;;;;5049953;28;20194;-73
2022/01/25 02:14:16;;;;;;;20.47;11.73;;;4.80;12.80;;;;;;5047884;28;20570;-74
2022/01/25 02:17:02;;;;;;;20.73;11.47;;;4.80;21.60;;;;;;5049259;28;20661;-74
2022/01/25 02:22:30;;;;;;;24.33;11.93;;;4.70;19.10;;;;;;5047435;28;20309;-74
2022/01/25 02:24:58;;;;;;;21.27;11.73;;;4.80;28.50;;;;;;5040246;28;20241;-74
2022/01/25 02:27:25;;;;;;;20.97;11.60;;;4.80;27.30;;;;;;5049571;28;20594;-74
2022/01/25 02:29:52;;;;;;;22.10;12.27;;;4.80;21.80;;;;;;5048233;28;20211;-74
2022/01/25 02:32:20;;;;;;;21.47;12.70;;;4.70;26.80;;;;;;5048041;28;20200;-74
2022/01/25 02:34:47;;;;;;;20.87;11.90;;;4.80;69.90;;;;;;5048219;28;20215;-74
2022/01/25 02:37:17;;;;;;;21.73;10.93;;;4.70;44.00;;;;;;5049988;28;20202;-74
2022/01/25 02:39:45;;;;;;;23.03;12.37;;;4.70;69.70;;;;;;5049070;28;20217;-74
2022/01/25 02:42:16;;;;;;;20.93;12.00;;;4.70;89.10;;;;;;5048611;28;20304;-74
2022/01/25 02:44:44;;;;;;;23.00;12.27;;;4.70;99.90;;;;;;5047999;28;20203;-74
2022/01/25 02:49:57;;;;;;;25.53;13.37;;;4.70;99.90;;;;;;5053371;28;20202;-74
2022/01/25 02:55:48;;;;;;;20.57;11.37;;;4.70;99.90;;;;;;5051128;28;20222;-74
2022/01/25 03:01:37;;;;;;;23.83;12.17;;;4.70;99.90;;;;;;5053101;28;20271;-74
2022/01/25 03:04:06;;;;;;;21.03;11.23;;;4.70;99.90;;;;;;5053574;28;20199;-72
2022/01/25 03:06:33;;;;;;;23.77;12.47;;;4.70;99.90;;;;;;5052974;28;20276;-73
2022/01/25 03:09:00;;;;;;;23.20;12.03;;;4.60;99.90;;;;;;5053743;28;20199;-73
2022/01/25 03:11:29;;;;;;;22.70;12.00;;;4.70;99.90;;;;;;5053074;28;20198;-73
2022/01/25 03:13:59;;;;;;;25.07;13.07;;;4.70;99.90;;;;;;5053118;28;20203;-73
2022/01/25 03:16:33;;;;;;;23.50;12.23;;;4.70;99.90;;;;;;5053247;28;20262;-73
2022/01/25 03:19:04;;;;;;;22.90;12.73;;;4.60;99.90;;;;;;5033513;28;20370;-73
2022/01/25 03:21:39;;;;;;;23.30;12.67;;;4.70;99.90;;;;;;5047105;28;20607;-73
2022/01/25 03:24:07;;;;;;;20.57;11.73;;;4.70;99.90;;;;;;5052864;28;20242;-73
2022/01/25 03:26:36;;;;;;;22.00;12.40;;;4.70;99.90;;;;;;5052981;28;20235;-73
2022/01/25 03:29:04;;;;;;;22.20;11.77;;;4.60;99.90;;;;;;5053428;28;20215;-73
2022/01/25 03:31:31;;;;;;;22.40;12.60;;;4.70;99.90;;;;;;5052654;28;20226;-73
2022/01/25 03:33:58;;;;;;;22.60;12.20;;;4.60;99.90;;;;;;5052346;28;20240;-73
2022/01/25 03:36:26;;;;;;;23.47;12.33;;;4.70;99.90;;;;;;5052849;28;20356;-73
2022/01/25 03:38:53;;;;;;;22.57;12.57;;;4.70;99.90;;;;;;5052138;28;20203;-73
2022/01/25 03:41:22;;;;;;;20.77;11.97;;;4.60;99.90;;;;;;5052581;28;20191;-73
2022/01/25 03:43:54;;;;;;;20.87;11.70;;;4.70;99.90;;;;;;5053194;28;20211;-73
2022/01/25 03:46:29;;;;;;;23.03;12.10;;;4.70;99.90;;;;;;5052188;28;20199;-73
2022/01/25 03:51:41;;;;;;;25.43;12.47;;;4.70;99.90;;;;;;5050810;28;20221;-74
2022/01/25 03:54:08;;;;;;;23.63;12.73;;;4.70;99.90;;;;;;5051312;28;20253;-74
2022/01/25 03:56:36;;;;;;;24.70;12.87;;;4.70;99.90;;;;;;5052504;28;20218;-74
2022/01/25 03:59:05;;;;;;;24.07;13.43;;;4.60;99.90;;;;;;5051771;28;20604;-74
2022/01/25 04:01:32;;;;;;;23.10;13.03;;;4.60;99.90;;;;;;5053044;28;20268;-74
2022/01/25 04:04:02;;;;;;;27.03;12.93;;;4.60;99.90;;;;;;5052025;28;20213;-74
2022/01/25 04:06:32;;;;;;;25.57;13.90;;;4.60;99.90;;;;;;5050834;28;20203;-73
2022/01/25 04:08:59;;;;;;;23.33;13.27;;;4.60;99.90;;;;;;5052292;28;20199;-73
2022/01/25 04:11:27;;;;;;;24.40;13.47;;;4.60;99.90;;;;;;5052278;28;20199;-73
2022/01/25 04:13:56;;;;;;;23.87;12.97;;;4.60;99.90;;;;;;5052558;28;20199;-73
2022/01/25 04:16:30;;;;;;;25.63;13.70;;;4.60;99.90;;;;;;5052258;28;20694;-73
2022/01/25 04:19:04;;;;;;;22.93;12.23;;;4.60;99.90;;;;;;5051491;28;20253;-73
2022/01/25 04:26:59;;;;;;;25.37;13.87;;;4.70;99.90;;;;;;5052216;28;20201;-73
2022/01/25 04:29:27;;;;;;;25.67;14.23;;;4.70;99.90;;;;;;5052097;28;20640;-68
2022/01/25 04:31:56;;;;;;;24.47;13.17;;;4.60;99.90;;;;;;5052064;28;20653;-68
2022/01/25 04:34:40;;;;;;;24.20;13.20;;;4.70;99.90;;;;;;5045851;28;20411;-73
2022/01/25 04:53:44;;;;;;;23.60;13.67;;;4.60;99.90;;;;;;5066936;28;20190;-73
2022/01/25 04:56:17;;;;;;;28.70;14.17;;;4.70;99.90;;;;;;5066038;28;20229;-73
2022/01/25 04:58:51;;;;;;;26.60;15.23;;;4.60;99.90;;;;;;5068730;28;20245;-73
2022/01/25 05:01:19;;;;;;;24.27;12.70;;;4.60;99.90;;;;;;5055214;28;20233;-73
2022/01/25 05:03:57;;;;;;;28.23;13.53;;;4.50;99.90;;;;;;5051044;28;20269;-73
2022/01/25 05:06:25;;;;;;;27.03;14.13;;;4.60;99.90;;;;;;5050387;28;20537;-73
2022/01/25 05:08:56;;;;;;;26.17;14.10;;;4.70;99.90;;;;;;5030041;28;20207;-73
2022/01/25 05:11:28;;;;;;;30.57;15.47;;;4.60;99.90;;;;;;5029564;28;20207;-73
2022/01/25 05:14:11;;;;;;;27.40;15.00;;;4.60;99.90;;;;;;5030169;28;20243;-73
2022/01/25 05:16:47;;;;;;;28.60;15.53;;;4.60;99.90;;;;;;5031174;28;20223;-73
2022/01/25 05:22:04;;;;;;;29.90;16.50;;;4.60;99.90;;;;;;5035038;28;20206;-73
2022/01/25 05:22:26;;;;;;;37.07;17.97;;;4.50;99.90;;;;;;5050643;28;20557;-73
2022/01/25 05:24:54;;;;;;;35.80;18.27;;;4.50;32.30;;;;;;5049698;28;20251;-73
2022/01/25 05:27:23;;;;;;;32.17;17.60;;;4.60;1.00;;;;;;5050963;28;20253;-73
2022/01/25 05:29:51;;;;;;;35.73;19.60;;;4.60;1.00;;;;;;5049771;28;20649;-73
2022/01/25 05:32:18;;;;;;;40.10;20.50;;;4.70;1.00;;;;;;5049236;28;20208;-74
2022/01/25 05:34:46;;;;;;;38.13;19.47;;;4.70;1.00;;;;;;5049121;28;20637;-73
2022/01/25 05:37:14;;;;;;;39.13;20.10;;;4.80;99.90;;;;;;5049728;28;20226;-73
2022/01/25 05:39:41;;;;;;;39.90;21.73;;;4.70;88.50;;;;;;5048064;28;20203;-73
2022/01/25 05:42:21;;;;;;;37.63;20.00;;;4.70;1.00;;;;;;5047959;28;20206;-73
2022/01/25 05:47:31;;;;;;;40.87;21.33;;;4.70;1.00;;;;;;5049701;28;20191;-73
2022/01/25 05:50:00;;;;;;;40.80;21.43;;;4.70;99.90;;;;;;5050604;28;20250;-73
2022/01/25 05:52:27;;;;;;;42.13;21.57;;;4.60;99.90;;;;;;5050762;28;20245;-73
2022/01/25 05:54:56;;;;;;;44.50;22.57;;;4.70;99.90;;;;;;5050426;28;20272;-73
2022/01/25 05:57:24;;;;;;;43.20;21.93;;;4.70;99.90;;;;;;5048850;28;20582;-73
2022/01/25 05:59:51;;;;;;;42.30;21.73;;;4.70;1.00;;;;;;5051596;28;20198;-73
2022/01/25 06:02:20;;;;;;;42.23;22.20;;;4.70;1.00;;;;;;5070474;28;20198;-73
2022/01/25 06:04:47;;;;;;;46.73;24.20;;;4.70;1.00;;;;;;5058569;28;20630;-73
2022/01/25 06:07:16;;;;;;;42.40;22.87;;;4.60;1.00;;;;;;5050676;28;20409;-73
2022/01/25 06:09:43;;;;;;;45.83;23.73;;;4.60;1.00;;;;;;5049248;28;20203;-73
2022/01/25 06:12:11;;;;;;;47.93;24.37;;;4.60;1.00;;;;;;5050457;28;20249;-73
2022/01/25 06:14:40;;;;;;;46.93;24.93;;;4.60;1.00;;;;;;5050361;28;20196;-73
2022/01/25 06:17:07;;;;;;;45.97;22.70;;;4.50;62.40;;;;;;5049855;28;20266;-73
2022/01/25 06:19:34;;;;;;;46.63;24.10;;;4.60;1.00;;;;;;5050381;28;20207;-73
2022/01/25 06:22:01;;;;;;;44.17;23.30;;;4.70;99.90;;;;;;5050101;28;20231;-73
2022/01/25 06:24:29;;;;;;;47.23;24.70;;;4.70;1.00;;;;;;5052476;28;20238;-73
2022/01/25 06:26:56;;;;;;;42.63;22.70;;;4.70;99.90;;;;;;5053694;28;20256;-73
2022/01/25 06:29:23;;;;;;;45.83;23.73;;;4.60;1.00;;;;;;5054493;28;20257;-73
2022/01/25 06:31:50;;;;;;;47.30;23.27;;;4.60;1.00;;;;;;5053667;28;20242;-73
2022/01/25 06:34:18;;;;;;;47.87;23.77;;;4.60;1.00;;;;;;5053547;28;20222;-73
2022/01/25 06:36:46;;;;;;;46.77;22.87;;;4.60;1.00;;;;;;5053996;28;20225;-73
2022/01/25 06:39:13;;;;;;;43.27;22.97;;;4.60;1.00;;;;;;5053116;28;20638;-73
2022/01/25 06:41:41;;;;;;;45.40;23.77;;;4.60;1.00;;;;;;5052252;28;20261;-73
2022/01/25 06:44:08;;;;;;;48.10;24.67;;;4.60;1.00;;;;;;5052202;28;20264;-73
2022/01/25 06:46:35;;;;;;;44.37;23.03;;;4.60;99.90;;;;;;5053577;28;20245;-74
2022/01/25 06:49:02;;;;;;;43.63;22.20;;;4.50;99.90;;;;;;5053545;28;20206;-73
2022/01/25 06:51:30;;;;;;;45.27;23.40;;;4.50;25.00;;;;;;5052937;28;20203;-73
2022/01/25 06:53:57;;;;;;;47.03;23.33;;;4.50;99.90;;;;;;5052415;28;20594;-73
2022/01/25 06:56:24;;;;;;;47.57;23.63;;;4.60;1.00;;;;;;5053581;28;20222;-73
2022/01/25 06:58:52;;;;;;;45.33;22.70;;;4.50;99.90;;;;;;5052317;28;20699;-73
2022/01/25 07:01:20;;;;;;;45.03;22.70;;;4.60;1.00;;;;;;5053538;28;20215;-73
2022/01/25 07:03:47;;;;;;;42.27;22.27;;;4.50;99.90;;;;;;5052576;28;20306;-73
2022/01/25 07:06:14;;;;;;;43.07;22.80;;;4.50;82.80;;;;;;5051955;28;20260;-73
2022/01/25 07:08:43;;;;;;;44.83;23.07;;;4.50;1.00;;;;;;5051294;28;20540;-73
2022/01/25 07:11:10;;;;;;;43.37;22.23;;;4.50;99.90;;;;;;5051459;28;20211;-73
2022/01/25 07:13:37;;;;;;;45.10;23.63;;;4.50;99.90;;;;;;5050577;28;20242;-73
2022/01/25 07:16:06;;;;;;;42.57;21.60;;;4.40;99.90;;;;;;5052557;28;20206;-73
2022/01/25 07:18:33;;;;;;;44.03;22.63;;;4.40;99.90;;;;;;5051584;28;20203;-73
2022/01/25 07:21:00;;;;;;;42.20;21.73;;;4.40;99.90;;;;;;5051522;28;20253;-73
2022/01/25 07:23:27;;;;;;;44.53;21.97;;;4.40;99.90;;;;;;5051885;28;20211;-73
2022/01/25 07:25:54;;;;;;;44.70;22.97;;;4.40;99.90;;;;;;5052541;28;20612;-73
2022/01/25 07:28:21;;;;;;;44.40;22.60;;;4.40;74.20;;;;;;5052702;28;20260;-73
2022/01/25 07:30:48;;;;;;;44.80;22.73;;;4.40;1.00;;;;;;5052340;28;20203;-73
2022/01/25 07:33:17;;;;;;;44.33;23.70;;;4.40;99.90;;;;;;5050757;28;20211;-74
2022/01/25 07:35:45;;;;;;;47.33;23.27;;;4.50;99.90;;;;;;5050456;28;20202;-73
2022/01/25 07:38:14;;;;;;;44.10;24.00;;;4.40;99.90;;;;;;5051716;28;20280;-73
2022/01/25 07:40:42;;;;;;;46.83;22.73;;;4.40;99.90;;;;;;5052514;28;20681;-74
2022/01/25 07:43:09;;;;;;;44.87;22.93;;;4.50;99.90;;;;;;5052706;28;20253;-73
2022/01/25 07:45:37;;;;;;;42.97;22.40;;;4.40;99.90;;;;;;5052212;28;20253;-74
2022/01/25 07:48:05;;;;;;;45.10;23.83;;;4.40;99.90;;;;;;5052550;28;20211;-73
2022/01/25 07:50:34;;;;;;;41.10;21.77;;;4.40;99.90;;;;;;5051885;28;20245;-73
2022/01/25 07:53:02;;;;;;;40.23;20.03;;;4.40;99.90;;;;;;5052266;28;20249;-73
2022/01/25 07:55:28;;;;;;;47.73;23.87;;;4.50;99.90;;;;;;5052754;28;20203;-73
2022/01/25 07:57:56;;;;;;;45.83;22.63;;;4.40;57.40;;;;;;5052458;28;20258;-73
2022/01/25 08:00:23;;;;;;;43.90;22.73;;;4.50;99.90;;;;;;5051430;28;20203;-73
2022/01/25 08:02:51;;;;;;;47.07;22.20;;;4.50;1.00;;;;;;5052627;28;20257;-73
2022/01/25 08:05:20;;;;;;;44.53;22.10;;;4.50;1.00;;;;;;5052373;28;20215;-73
2022/01/25 08:07:48;;;;;;;41.50;21.73;;;4.50;1.00;;;;;;5053522;28;20203;-73
2022/01/25 08:10:15;;;;;;;44.67;22.10;;;4.50;1.00;;;;;;5052634;28;20581;-73
2022/01/25 08:12:42;;;;;;;43.70;21.20;;;4.50;1.00;;;;;;5053167;28;20665;-73
2022/01/25 08:15:11;;;;;;;42.10;21.27;;;4.50;1.00;;;;;;5052550;28;20210;-73
2022/01/25 08:17:38;;;;;;;42.43;21.13;;;4.50;21.40;;;;;;5052615;28;20230;-73
2022/01/25 08:20:06;;;;;;;46.50;22.20;;;4.50;96.40;;;;;;5052915;28;20229;-73
2022/01/25 08:22:33;;;;;;;40.20;19.93;;;4.50;99.90;;;;;;5053141;28;20203;-73
2022/01/25 08:25:01;;;;;;;38.33;19.53;;;4.50;98.20;;;;;;5051880;28;20206;-73
2022/01/25 08:27:28;;;;;;;42.23;20.57;;;4.60;99.90;;;;;;5052025;28;20206;-73
2022/01/25 08:29:56;;;;;;;38.20;19.77;;;4.60;99.90;;;;;;5052305;28;20213;-73
2022/01/25 08:32:23;;;;;;;39.27;18.57;;;4.50;99.90;;;;;;5052950;28;20203;-73
2022/01/25 08:34:50;;;;;;;40.60;20.37;;;4.50;99.90;;;;;;5051750;28;20214;-73
2022/01/25 08:37:17;;;;;;;42.53;21.37;;;4.60;99.90;;;;;;5052664;28;20580;-73
2022/01/25 08:39:44;;;;;;;40.00;20.13;;;4.50;99.90;;;;;;5051936;28;20214;-73
2022/01/25 08:42:12;;;;;;;43.63;21.93;;;4.60;99.90;;;;;;5052678;28;20743;-73
2022/01/25 08:44:40;;;;;;;43.23;20.67;;;4.50;81.10;;;;;;5051673;28;20570;-73
2022/01/25 08:47:09;;;;;;;42.43;20.47;;;4.50;99.90;;;;;;5052037;28;20565;-73
2022/01/25 08:49:36;;;;;;;39.27;20.20;;;4.60;99.90;;;;;;5051391;28;20213;-73
2022/01/25 08:52:03;;;;;;;43.30;20.90;;;4.60;99.90;;;;;;5052158;28;20207;-73
2022/01/25 08:54:30;;;;;;;40.83;19.80;;;4.60;99.90;;;;;;5051915;28;20661;-73
2022/01/25 08:56:58;;;;;;;40.10;21.27;;;4.50;99.90;;;;;;5052580;28;20231;-73
2022/01/25 08:59:26;;;;;;;40.07;19.80;;;4.60;99.90;;;;;;5050961;28;20207;-73
2022/01/25 09:01:53;;;;;;;46.60;21.77;;;4.60;99.90;;;;;;5051402;28;20202;-73
2022/01/25 09:04:20;;;;;;;44.67;21.77;;;4.60;99.90;;;;;;5052275;28;20207;-73
2022/01/25 09:06:47;;;;;;;43.33;20.20;;;4.60;99.90;;;;;;5052667;28;20549;-73
2022/01/25 09:09:14;;;;;;;41.47;20.43;;;4.60;1.00;;;;;;5052609;28;20202;-73
2022/01/25 09:11:42;;;;;;;40.47;20.80;;;4.70;1.00;;;;;;5052321;28;20207;-73
2022/01/25 09:14:09;;;;;;;39.93;18.87;;;4.60;1.00;;;;;;5052264;28;20207;-73
2022/01/25 09:16:38;;;;;;;41.97;20.83;;;4.60;1.00;;;;;;5052447;28;20404;-73
2022/01/25 09:19:05;;;;;;;41.60;19.77;;;4.60;1.00;;;;;;5052029;28;20227;-73
2022/01/25 09:21:32;;;;;;;43.30;21.10;;;4.60;1.00;;;;;;5052367;28;20217;-73
2022/01/25 09:24:00;;;;;;;43.20;20.10;;;4.60;1.00;;;;;;5052482;28;20211;-73
2022/01/25 09:26:27;;;;;;;43.80;21.63;;;4.60;1.00;;;;;;5052431;28;20187;-73
2022/01/25 09:28:55;;;;;;;39.47;19.90;;;4.60;1.00;;;;;;5052097;28;20203;-73
2022/01/25 09:31:22;;;;;;;42.10;19.77;;;4.70;1.00;;;;;;5051890;28;20254;-73
2022/01/25 09:33:51;;;;;;;40.97;19.63;;;4.60;1.00;;;;;;5051928;28;20532;-73
2022/01/25 09:36:17;;;;;;;43.07;20.53;;;4.60;1.00;;;;;;5052063;28;20211;-73
2022/01/25 09:38:45;;;;;;;43.97;20.90;;;4.60;1.00;;;;;;5052063;28;20229;-73
2022/01/25 09:41:12;;;;;;;45.40;21.70;;;4.70;1.00;;;;;;5052062;28;20695;-73
2022/01/25 09:43:39;;;;;;;43.13;20.20;;;4.60;1.00;;;;;;5051926;28;20214;-73
2022/01/25 09:46:06;;;;;;;43.87;21.03;;;4.70;1.00;;;;;;5051745;28;20330;-74
2022/01/25 09:48:33;;;;;;;43.30;21.10;;;4.60;99.90;;;;;;5051863;28;20195;-73
2022/01/25 09:51:02;;;;;;;45.87;22.00;;;4.70;99.90;;;;;;5051771;28;20213;-73
2022/01/25 09:53:29;;;;;;;46.83;22.07;;;4.50;1.00;;;;;;5052154;28;20207;-73
2022/01/25 09:55:57;;;;;;;45.10;21.37;;;4.60;1.00;;;;;;5051635;28;20206;-73
2022/01/25 09:58:24;;;;;;;44.80;21.60;;;4.60;1.00;;;;;;5055325;28;20226;-73
2022/01/25 10:00:56;;;;;;;44.70;21.07;;;4.60;1.00;;;;;;5056180;28;20207;-73
2022/01/25 10:03:30;;;;;;;44.43;21.67;;;4.60;1.00;;;;;;5056077;28;20609;-73
2022/01/25 10:06:00;;;;;;;42.77;21.57;;;4.70;1.00;;;;;;5055765;28;20210;-73
2022/01/25 10:08:31;;;;;;;45.30;22.07;;;4.70;1.00;;;;;;5055881;28;20230;-73
2022/01/25 10:11:00;;;;;;;41.90;21.27;;;4.70;1.00;;;;;;5055590;28;20207;-73
2022/01/25 10:13:29;;;;;;;46.63;22.73;;;4.80;1.00;;;;;;5055807;28;20210;-73
2022/01/25 10:16:00;;;;;;;45.90;21.37;;;4.80;1.00;;;;;;5055639;28;20209;-73
2022/01/25 10:18:38;;;;;;;43.80;20.80;;;4.70;1.00;;;;;;5055696;28;20650;-73
2022/01/25 10:21:11;;;;;;;47.37;21.27;;;4.80;1.00;;;;;;5055579;28;20199;-73
2022/01/25 10:23:41;;;;;;;42.03;20.07;;;4.70;99.90;;;;;;5055820;28;20211;-73
2022/01/25 10:26:09;;;;;;;46.03;21.37;;;4.70;1.00;;;;;;5055515;28;20213;-73
2022/01/25 10:28:36;;;;;;;45.67;21.23;;;4.80;1.00;;;;;;5055456;28;20203;-73
2022/01/25 10:31:05;;;;;;;42.17;21.57;;;4.80;1.00;;;;;;5055392;28;20209;-73
2022/01/25 10:33:36;;;;;;;42.87;20.97;;;4.80;1.00;;;;;;5055274;28;20536;-73
2022/01/25 10:36:13;;;;;;;43.47;20.97;;;4.80;1.00;;;;;;5052608;28;20199;-73
2022/01/25 10:38:43;;;;;;;43.53;20.73;;;4.70;1.00;;;;;;5058956;28;20218;-73
2022/01/25 10:41:12;;;;;;;46.97;21.27;;;4.70;1.00;;;;;;5058501;28;20600;-73
2022/01/25 10:43:40;;;;;;;47.23;21.30;;;4.80;1.00;;;;;;5054892;28;20245;-74
2022/01/25 10:46:22;;;;;;;43.50;20.73;;;4.70;1.00;;;;;;5054673;28;20302;-73
2022/01/25 10:48:51;;;;;;;49.67;22.97;;;4.70;1.00;;;;;;5055566;28;20636;-73
2022/01/25 10:51:21;;;;;;;44.03;20.87;;;4.70;1.00;;;;;;5067178;28;20205;-73
2022/01/25 10:54:04;;;;;;;47.07;22.17;;;4.70;1.00;;;;;;5053909;28;20207;-73
2022/01/25 10:56:41;;;;;;;49.50;23.00;;;4.70;1.00;;;;;;5053722;28;20199;-73
2022/01/25 10:59:11;;;;;;;49.13;22.60;;;4.80;1.00;;;;;;5053448;28;20244;-73
2022/01/25 11:01:41;;;;;;;45.00;21.70;;;4.80;22.20;;;;;;5054711;28;20211;-73
2022/01/25 11:04:10;;;;;;;46.83;22.57;;;4.70;1.00;;;;;;5053870;28;20217;-73
2022/01/25 11:06:38;;;;;;;44.43;21.23;;;4.70;1.00;;;;;;5053873;28;20202;-73
2022/01/25 11:09:10;;;;;;;44.77;20.87;;;4.70;1.00;;;;;;5053360;28;20199;-73
2022/01/25 11:11:41;;;;;;;44.67;21.60;;;4.70;1.00;;;;;;5053829;28;20207;-73
2022/01/25 11:16:54;;;;;;;47.30;22.97;;;4.70;1.00;;;;;;5054389;28;20691;-73
2022/01/25 11:19:22;;;;;;;45.70;21.77;;;4.70;1.00;;;;;;5054144;28;20600;-73
2022/01/25 11:21:50;;;;;;;45.67;22.17;;;4.80;1.00;;;;;;5054257;28;20207;-73
2022/01/25 11:24:20;;;;;;;48.67;22.20;;;4.80;1.00;;;;;;5054358;28;20843;-73
2022/01/25 11:26:49;;;;;;;46.70;22.83;;;4.80;99.90;;;;;;5054300;28;20205;-73
2022/01/25 11:29:17;;;;;;;46.30;21.93;;;4.90;99.90;;;;;;5054644;28;20187;-73
2022/01/25 11:31:50;;;;;;;46.50;21.27;;;4.80;99.90;;;;;;5054134;28;20213;-73
2022/01/25 11:34:18;;;;;;;49.63;23.27;;;4.90;99.90;;;;;;5054249;28;20211;-73
2022/01/25 11:36:51;;;;;;;46.03;20.67;;;4.90;1.00;;;;;;5054251;28;20207;-73
2022/01/25 11:39:22;;;;;;;43.20;20.50;;;4.80;99.90;;;;;;5053716;28;20238;-73
2022/01/25 11:41:49;;;;;;;40.87;19.37;;;4.90;99.90;;;;;;5053962;28;20207;-73
2022/01/25 11:44:21;;;;;;;44.13;20.87;;;4.90;99.90;;;;;;5054110;28;20209;-73
2022/01/25 11:46:50;;;;;;;38.83;19.37;;;4.90;99.90;;;;;;5053683;28;20572;-73
2022/01/25 11:49:19;;;;;;;39.30;19.50;;;4.80;99.90;;;;;;5053958;28;20203;-73
2022/01/25 11:52:03;;;;;;;40.17;19.77;;;4.80;99.90;;;;;;5053514;28;20210;-73
2022/01/25 11:54:32;;;;;;;39.23;18.97;;;4.80;99.90;;;;;;5053103;28;20213;-73
2022/01/25 11:57:10;;;;;;;44.97;21.57;;;4.80;99.90;;;;;;5053619;28;20203;-73
2022/01/25 11:59:38;;;;;;;45.57;20.63;;;4.80;99.90;;;;;;5052378;28;20280;-74
2022/01/25 12:02:05;;;;;;;45.07;21.63;;;4.80;1.00;;;;;;5052504;28;20234;-74
2022/01/25 12:04:32;;;;;;;47.67;21.03;;;4.90;1.00;;;;;;5053369;28;20207;-73
2022/01/25 12:07:03;;;;;;;47.50;21.93;;;4.90;1.00;;;;;;5053626;28;20214;-73
2022/01/25 12:09:45;;;;;;;44.43;19.80;;;4.80;1.00;;;;;;5053208;28;20203;-74
2022/01/25 12:12:14;;;;;;;42.07;19.90;;;4.90;1.00;;;;;;5053261;28;20206;-74
2022/01/25 12:14:47;;;;;;;43.20;21.20;;;4.70;1.00;;;;;;5051931;28;20218;-73
2022/01/25 12:17:17;;;;;;;52.27;23.87;;;4.70;1.00;;;;;;5053500;28;20207;-73
2022/01/25 12:19:48;;;;;;;44.83;21.27;;;4.80;1.00;;;;;;5051320;28;20561;-73
2022/01/25 12:22:28;;;;;;;44.30;21.47;;;4.80;1.00;;;;;;5052201;28;20747;-74
2022/01/25 12:25:08;;;;;;;44.60;20.00;;;4.90;99.90;;;;;;5052912;28;20297;-74
2022/01/25 12:27:41;;;;;;;47.80;19.70;;;4.80;99.90;;;;;;5052785;28;20199;-73
2022/01/25 12:47:05;;;;;;;45.87;21.33;;;4.90;99.90;;;;;;5052792;28;20181;-74
2022/01/25 12:49:32;;;;;;;47.47;21.03;;;4.90;99.90;;;;;;5052729;28;20202;-74
2022/01/25 12:51:58;;;;;;;52.60;22.10;;;5.00;99.90;;;;;;5052890;28;20230;-74
2022/01/25 12:54:28;;;;;;;45.07;21.73;;;4.90;99.90;;;;;;5052034;28;20207;-74
2022/01/25 12:56:57;;;;;;;48.43;22.03;;;5.00;99.90;;;;;;5052094;28;20234;-73
2022/01/25 12:59:27;;;;;;;46.40;20.33;;;5.00;99.90;;;;;;5051319;28;20219;-73
2022/01/25 13:01:56;;;;;;;45.83;20.30;;;5.00;99.90;;;;;;5052216;28;20246;-74
2022/01/25 13:04:24;;;;;;;42.40;20.17;;;5.00;99.90;;;;;;5049660;28;20276;-73
2022/01/25 13:06:52;;;;;;;42.23;19.70;;;5.00;99.90;;;;;;5042069;28;20203;-74
2022/01/25 13:09:27;;;;;;;50.53;22.27;;;5.00;99.90;;;;;;5043719;28;20293;-74
2022/01/25 13:12:11;;;;;;;49.43;21.00;;;5.00;64.10;;;;;;5047425;28;20293;-74
2022/01/25 13:15:02;;;;;;;49.43;22.97;;;5.00;97.90;;;;;;5049180;28;20298;-74
2022/01/25 13:17:30;;;;;;;48.80;22.17;;;5.10;99.90;;;;;;5042686;28;20295;-74
2022/01/25 13:20:04;;;;;;;43.97;20.70;;;5.10;99.90;;;;;;5052704;28;20214;-74
2022/01/25 13:22:36;;;;;;;49.70;22.83;;;5.10;73.60;;;;;;5056573;28;20207;-74
2022/01/25 13:25:14;;;;;;;45.93;21.13;;;5.10;48.10;;;;;;5049850;28;20203;-74
2022/01/25 13:27:48;;;;;;;45.90;20.50;;;5.10;90.90;;;;;;5051407;28;20264;-74
2022/01/25 13:33:01;;;;;;;41.77;19.00;;;5.20;8.80;;;;;;5050037;28;20214;-73
2022/01/25 13:35:33;;;;;;;43.20;20.87;;;5.20;33.40;;;;;;5051467;28;20203;-74
2022/01/25 13:38:09;;;;;;;43.67;21.13;;;5.20;1.00;;;;;;5050564;28;20238;-73
2022/01/25 13:40:46;;;;;;;41.47;19.00;;;5.20;99.90;;;;;;5052611;28;20201;-73
2022/01/25 13:45:42;;;;;;;45.63;19.67;;;5.20;39.50;;;;;;5028533;28;20203;-74
2022/01/25 13:49:42;;;;;;;48.03;19.93;;;5.20;1.00;;;;;;5048532;28;20603;-73
2022/01/25 13:52:10;;;;;;;42.47;19.27;;;5.20;39.90;;;;;;5053973;28;20207;-74
2022/01/25 13:54:37;;;;;;;45.33;20.07;;;5.10;1.00;;;;;;5051509;28;20570;-73
2022/01/25 13:57:11;;;;;;;44.63;20.53;;;5.20;1.00;;;;;;5046040;28;20211;-75
2022/01/25 13:59:38;;;;;;;43.97;19.27;;;5.20;1.00;;;;;;5051540;28;20704;-74
2022/01/25 14:02:05;;;;;;;44.87;21.20;;;5.20;1.00;;;;;;5058782;28;20202;-73
2022/01/25 14:04:38;;;;;;;45.07;19.93;;;5.20;1.00;;;;;;5049017;28;20660;-74
2022/01/25 14:07:05;;;;;;;44.27;19.90;;;5.20;25.80;;;;;;5050091;28;20280;-74
2022/01/25 14:09:38;;;;;;;40.90;19.63;;;5.20;91.70;;;;;;5051385;28;20569;-74
2022/01/25 14:23:26;;;;;;;50.20;21.27;;;5.30;99.90;;;;;;5047340;28;21673;-74
2022/01/25 14:26:01;;;;;;;42.47;19.33;;;5.20;99.90;;;;;;5055804;28;20285;-74
2022/01/25 14:28:29;;;;;;;42.47;21.10;;;5.30;47.60;;;;;;5052661;28;20284;-74
2022/01/25 14:30:57;;;;;;;42.60;19.77;;;5.20;9.40;;;;;;5047366;28;20203;-74
2022/01/25 14:33:26;;;;;;;43.70;18.30;;;5.30;16.80;;;;;;5055831;28;20305;-74
2022/01/25 14:35:56;;;;;;;44.00;21.37;;;5.30;47.60;;;;;;5048504;28;20217;-74
2022/01/25 14:38:26;;;;;;;42.10;19.30;;;5.30;1.00;;;;;;5047849;28;20203;-74
2022/01/25 14:41:01;;;;;;;35.47;17.27;;;5.30;27.70;;;;;;5054842;28;20214;-74
2022/01/25 14:43:31;;;;;;;42.33;18.80;;;5.30;1.00;;;;;;5056125;28;20653;-74
2022/01/25 14:46:10;;;;;;;36.60;18.70;;;5.30;1.00;;;;;;5055233;28;20612;-74
2022/01/25 14:48:40;;;;;;;36.80;18.27;;;5.20;1.00;;;;;;5058592;28;21052;-74
2022/01/25 14:51:09;;;;;;;40.73;18.93;;;5.20;1.00;;;;;;5057139;28;20255;-74
2022/01/25 14:53:36;;;;;;;39.27;18.60;;;5.20;1.00;;;;;;5052948;28;20645;-74